sensor_id;sensor_type;location;lat;lon;timestamp;P1;durP1;ratioP1;P2;durP2;ratioP2
5285;SDS011;2665;53.112;7.358;2023-12-07T00:02:14;7.77;;;5.63;;
5285;SDS011;2665;53.112;7.358;2023-12-07T00:04:40;8.67;;;5.77;;
5285;SDS011;2665;53.112;7.358;2023-12-07T00:07:06;8.40;;;5.47;;
5285;SDS011;2665;53.112;7.358;2023-12-07T00:09:32;8.27;;;6.33;;
5285;SDS011;2665;53.112;7.358;2023-12-07T00:11:58;8.63;;;5.73;;
5285;SDS011;2665;53.112;7.358;2023-12-07T00:14:24;9.27;;;5.20;;
5285;SDS011;2665;53.112;7.358;2023-12-07T00:16:51;8.37;;;5.63;;
5285;SDS011;2665;53.112;7.358;2023-12-07T00:19:17;7.10;;;5.13;;
5285;SDS011;2665;53.112;7.358;2023-12-07T00:21:43;12.53;;;6.43;;
5285;SDS011;2665;53.112;7.358;2023-12-07T00:24:09;7.53;;;5.30;;
5285;SDS011;2665;53.112;7.358;2023-12-07T00:26:35;7.40;;;5.13;;
5285;SDS011;2665;53.112;7.358;2023-12-07T00:29:03;6.93;;;5.67;;
5285;SDS011;2665;53.112;7.358;2023-12-07T00:31:29;9.00;;;5.30;;
5285;SDS011;2665;53.112;7.358;2023-12-07T00:33:55;10.63;;;5.57;;
5285;SDS011;2665;53.112;7.358;2023-12-07T00:36:21;7.07;;;4.70;;
5285;SDS011;2665;53.112;7.358;2023-12-07T00:38:47;7.50;;;5.30;;
5285;SDS011;2665;53.112;7.358;2023-12-07T00:41:13;6.60;;;4.73;;
5285;SDS011;2665;53.112;7.358;2023-12-07T00:43:39;8.00;;;5.70;;
5285;SDS011;2665;53.112;7.358;2023-12-07T00:46:06;6.67;;;5.00;;
5285;SDS011;2665;53.112;7.358;2023-12-07T00:48:32;6.63;;;5.37;;
5285;SDS011;2665;53.112;7.358;2023-12-07T00:50:58;11.90;;;7.27;;
5285;SDS011;2665;53.112;7.358;2023-12-07T00:53:24;7.10;;;5.13;;
5285;SDS011;2665;53.112;7.358;2023-12-07T00:55:50;7.50;;;5.13;;
5285;SDS011;2665;53.112;7.358;2023-12-07T00:58:16;7.07;;;4.93;;
5285;SDS011;2665;53.112;7.358;2023-12-07T01:00:42;5.60;;;4.17;;
5285;SDS011;2665;53.112;7.358;2023-12-07T01:03:09;7.47;;;5.53;;
5285;SDS011;2665;53.112;7.358;2023-12-07T01:05:35;10.10;;;6.90;;
5285;SDS011;2665;53.112;7.358;2023-12-07T01:08:01;8.50;;;6.07;;
5285;SDS011;2665;53.112;7.358;2023-12-07T01:10:28;9.87;;;5.23;;
5285;SDS011;2665;53.112;7.358;2023-12-07T01:12:54;7.47;;;5.60;;
5285;SDS011;2665;53.112;7.358;2023-12-07T01:15:20;10.93;;;6.07;;
5285;SDS011;2665;53.112;7.358;2023-12-07T01:17:46;10.23;;;5.37;;
5285;SDS011;2665;53.112;7.358;2023-12-07T01:20:12;9.07;;;6.43;;
5285;SDS011;2665;53.112;7.358;2023-12-07T01:22:39;7.93;;;5.70;;
5285;SDS011;2665;53.112;7.358;2023-12-07T01:25:06;9.00;;;5.07;;
5285;SDS011;2665;53.112;7.358;2023-12-07T01:27:32;9.63;;;5.60;;
5285;SDS011;2665;53.112;7.358;2023-12-07T01:29:58;6.83;;;5.00;;
5285;SDS011;2665;53.112;7.358;2023-12-07T01:32:24;9.40;;;5.67;;
5285;SDS011;2665;53.112;7.358;2023-12-07T01:34:50;9.67;;;5.00;;
5285;SDS011;2665;53.112;7.358;2023-12-07T01:37:16;14.17;;;5.50;;
5285;SDS011;2665;53.112;7.358;2023-12-07T01:39:42;9.43;;;6.73;;
5285;SDS011;2665;53.112;7.358;2023-12-07T01:42:09;7.70;;;5.30;;
5285;SDS011;2665;53.112;7.358;2023-12-07T01:44:37;9.10;;;5.87;;
5285;SDS011;2665;53.112;7.358;2023-12-07T01:47:03;7.83;;;5.60;;
5285;SDS011;2665;53.112;7.358;2023-12-07T01:49:29;8.33;;;5.30;;
5285;SDS011;2665;53.112;7.358;2023-12-07T01:51:56;7.20;;;5.10;;
5285;SDS011;2665;53.112;7.358;2023-12-07T01:54:22;8.83;;;5.90;;
5285;SDS011;2665;53.112;7.358;2023-12-07T01:56:48;6.47;;;4.67;;
5285;SDS011;2665;53.112;7.358;2023-12-07T01:59:15;9.30;;;6.17;;
5285;SDS011;2665;53.112;7.358;2023-12-07T02:01:41;7.37;;;5.00;;
5285;SDS011;2665;53.112;7.358;2023-12-07T02:04:07;6.80;;;4.70;;
5285;SDS011;2665;53.112;7.358;2023-12-07T02:06:33;7.50;;;5.53;;
5285;SDS011;2665;53.112;7.358;2023-12-07T02:08:59;6.70;;;5.13;;
5285;SDS011;2665;53.112;7.358;2023-12-07T02:11:25;7.23;;;5.53;;
5285;SDS011;2665;53.112;7.358;2023-12-07T02:13:51;7.60;;;5.80;;
5285;SDS011;2665;53.112;7.358;2023-12-07T02:16:24;6.70;;;5.00;;
5285;SDS011;2665;53.112;7.358;2023-12-07T02:18:52;8.70;;;5.27;;
5285;SDS011;2665;53.112;7.358;2023-12-07T02:21:24;11.30;;;5.40;;
5285;SDS011;2665;53.112;7.358;2023-12-07T02:23:51;8.20;;;4.93;;
5285;SDS011;2665;53.112;7.358;2023-12-07T02:26:34;7.23;;;4.57;;
5285;SDS011;2665;53.112;7.358;2023-12-07T02:29:00;9.30;;;6.33;;
5285;SDS011;2665;53.112;7.358;2023-12-07T02:31:26;5.53;;;4.40;;
5285;SDS011;2665;53.112;7.358;2023-12-07T02:33:53;8.63;;;5.03;;
5285;SDS011;2665;53.112;7.358;2023-12-07T02:36:19;8.70;;;5.53;;
5285;SDS011;2665;53.112;7.358;2023-12-07T02:38:46;7.43;;;4.83;;
5285;SDS011;2665;53.112;7.358;2023-12-07T02:41:12;9.80;;;5.90;;
5285;SDS011;2665;53.112;7.358;2023-12-07T02:43:39;10.83;;;4.97;;
5285;SDS011;2665;53.112;7.358;2023-12-07T02:46:05;6.37;;;4.53;;
5285;SDS011;2665;53.112;7.358;2023-12-07T02:48:31;6.80;;;4.40;;
5285;SDS011;2665;53.112;7.358;2023-12-07T02:50:57;7.57;;;5.30;;
5285;SDS011;2665;53.112;7.358;2023-12-07T02:53:23;10.73;;;5.40;;
5285;SDS011;2665;53.112;7.358;2023-12-07T02:55:49;7.27;;;4.83;;
5285;SDS011;2665;53.112;7.358;2023-12-07T02:58:15;8.53;;;5.30;;
5285;SDS011;2665;53.112;7.358;2023-12-07T03:00:41;7.30;;;4.50;;
5285;SDS011;2665;53.112;7.358;2023-12-07T03:03:07;8.03;;;4.90;;
5285;SDS011;2665;53.112;7.358;2023-12-07T03:05:33;8.93;;;4.50;;
5285;SDS011;2665;53.112;7.358;2023-12-07T03:07:59;7.80;;;4.37;;
5285;SDS011;2665;53.112;7.358;2023-12-07T03:10:25;9.60;;;5.73;;
5285;SDS011;2665;53.112;7.358;2023-12-07T03:12:51;5.23;;;4.20;;
5285;SDS011;2665;53.112;7.358;2023-12-07T03:15:17;6.90;;;5.10;;
5285;SDS011;2665;53.112;7.358;2023-12-07T03:17:44;10.23;;;5.00;;
5285;SDS011;2665;53.112;7.358;2023-12-07T03:20:10;5.93;;;4.03;;
5285;SDS011;2665;53.112;7.358;2023-12-07T03:22:36;7.53;;;5.17;;
5285;SDS011;2665;53.112;7.358;2023-12-07T03:25:02;7.47;;;4.60;;
5285;SDS011;2665;53.112;7.358;2023-12-07T03:27:28;7.50;;;5.10;;
5285;SDS011;2665;53.112;7.358;2023-12-07T03:29:54;10.90;;;4.97;;
5285;SDS011;2665;53.112;7.358;2023-12-07T03:32:20;8.27;;;4.93;;
5285;SDS011;2665;53.112;7.358;2023-12-07T03:34:46;7.57;;;4.70;;
5285;SDS011;2665;53.112;7.358;2023-12-07T03:37:12;5.70;;;4.20;;
5285;SDS011;2665;53.112;7.358;2023-12-07T03:39:38;5.60;;;4.50;;
5285;SDS011;2665;53.112;7.358;2023-12-07T03:42:04;6.07;;;3.83;;
5285;SDS011;2665;53.112;7.358;2023-12-07T03:44:30;6.27;;;4.83;;
5285;SDS011;2665;53.112;7.358;2023-12-07T03:46:56;7.83;;;4.63;;
5285;SDS011;2665;53.112;7.358;2023-12-07T03:49:22;9.30;;;5.50;;
5285;SDS011;2665;53.112;7.358;2023-12-07T03:51:48;7.37;;;5.13;;
5285;SDS011;2665;53.112;7.358;2023-12-07T03:54:14;8.67;;;4.90;;
5285;SDS011;2665;53.112;7.358;2023-12-07T03:56:40;6.50;;;4.60;;
5285;SDS011;2665;53.112;7.358;2023-12-07T03:59:06;6.57;;;4.47;;
5285;SDS011;2665;53.112;7.358;2023-12-07T04:01:32;7.27;;;4.40;;
5285;SDS011;2665;53.112;7.358;2023-12-07T04:03:59;7.80;;;4.63;;
5285;SDS011;2665;53.112;7.358;2023-12-07T04:06:25;6.00;;;4.20;;
5285;SDS011;2665;53.112;7.358;2023-12-07T04:08:52;8.20;;;5.23;;
5285;SDS011;2665;53.112;7.358;2023-12-07T04:11:18;7.00;;;4.03;;
5285;SDS011;2665;53.112;7.358;2023-12-07T04:13:44;6.10;;;4.73;;
5285;SDS011;2665;53.112;7.358;2023-12-07T04:16:10;10.27;;;5.30;;
5285;SDS011;2665;53.112;7.358;2023-12-07T04:18:36;5.73;;;4.23;;
5285;SDS011;2665;53.112;7.358;2023-12-07T04:21:03;10.80;;;4.10;;
5285;SDS011;2665;53.112;7.358;2023-12-07T04:23:30;6.63;;;4.83;;
5285;SDS011;2665;53.112;7.358;2023-12-07T04:25:56;7.73;;;4.23;;
5285;SDS011;2665;53.112;7.358;2023-12-07T04:28:22;7.17;;;4.73;;
5285;SDS011;2665;53.112;7.358;2023-12-07T04:30:48;6.50;;;4.30;;
5285;SDS011;2665;53.112;7.358;2023-12-07T04:33:14;9.20;;;4.33;;
5285;SDS011;2665;53.112;7.358;2023-12-07T04:35:40;8.10;;;4.80;;
5285;SDS011;2665;53.112;7.358;2023-12-07T04:38:06;9.03;;;5.30;;
5285;SDS011;2665;53.112;7.358;2023-12-07T04:40:32;5.87;;;3.30;;
5285;SDS011;2665;53.112;7.358;2023-12-07T04:42:58;6.70;;;4.50;;
5285;SDS011;2665;53.112;7.358;2023-12-07T04:45:24;5.17;;;3.60;;
5285;SDS011;2665;53.112;7.358;2023-12-07T04:47:50;7.90;;;5.50;;
5285;SDS011;2665;53.112;7.358;2023-12-07T04:50:16;6.77;;;4.43;;
5285;SDS011;2665;53.112;7.358;2023-12-07T04:52:42;8.27;;;4.40;;
5285;SDS011;2665;53.112;7.358;2023-12-07T04:55:08;5.50;;;3.50;;
5285;SDS011;2665;53.112;7.358;2023-12-07T04:57:34;7.03;;;4.13;;
5285;SDS011;2665;53.112;7.358;2023-12-07T05:00:02;7.93;;;4.73;;
5285;SDS011;2665;53.112;7.358;2023-12-07T05:02:38;5.40;;;3.17;;
5285;SDS011;2665;53.112;7.358;2023-12-07T05:05:04;7.03;;;4.20;;
5285;SDS011;2665;53.112;7.358;2023-12-07T05:07:31;7.27;;;4.47;;
5285;SDS011;2665;53.112;7.358;2023-12-07T05:09:57;8.30;;;4.50;;
5285;SDS011;2665;53.112;7.358;2023-12-07T05:12:23;6.77;;;4.30;;
5285;SDS011;2665;53.112;7.358;2023-12-07T05:14:49;5.33;;;4.30;;
5285;SDS011;2665;53.112;7.358;2023-12-07T05:17:15;9.27;;;4.70;;
5285;SDS011;2665;53.112;7.358;2023-12-07T05:19:41;6.87;;;4.50;;
5285;SDS011;2665;53.112;7.358;2023-12-07T05:22:07;5.77;;;4.50;;
5285;SDS011;2665;53.112;7.358;2023-12-07T05:24:34;6.67;;;3.70;;
5285;SDS011;2665;53.112;7.358;2023-12-07T05:27:00;6.40;;;4.10;;
5285;SDS011;2665;53.112;7.358;2023-12-07T05:29:27;8.27;;;5.30;;
5285;SDS011;2665;53.112;7.358;2023-12-07T05:31:53;6.90;;;4.30;;
5285;SDS011;2665;53.112;7.358;2023-12-07T05:34:19;6.67;;;4.17;;
5285;SDS011;2665;53.112;7.358;2023-12-07T05:36:45;9.53;;;4.83;;
5285;SDS011;2665;53.112;7.358;2023-12-07T05:39:11;10.47;;;4.90;;
5285;SDS011;2665;53.112;7.358;2023-12-07T05:41:38;8.23;;;5.00;;
5285;SDS011;2665;53.112;7.358;2023-12-07T05:44:04;8.40;;;4.53;;
5285;SDS011;2665;53.112;7.358;2023-12-07T05:46:30;4.97;;;3.73;;
5285;SDS011;2665;53.112;7.358;2023-12-07T05:48:56;5.97;;;4.30;;
5285;SDS011;2665;53.112;7.358;2023-12-07T05:51:22;5.93;;;3.70;;
5285;SDS011;2665;53.112;7.358;2023-12-07T05:53:48;6.83;;;4.17;;
5285;SDS011;2665;53.112;7.358;2023-12-07T05:56:18;8.67;;;4.53;;
5285;SDS011;2665;53.112;7.358;2023-12-07T05:58:45;6.17;;;4.60;;
5285;SDS011;2665;53.112;7.358;2023-12-07T06:01:11;5.53;;;3.93;;
5285;SDS011;2665;53.112;7.358;2023-12-07T06:03:37;7.00;;;4.33;;
5285;SDS011;2665;53.112;7.358;2023-12-07T06:06:03;7.73;;;4.53;;
5285;SDS011;2665;53.112;7.358;2023-12-07T06:08:30;8.87;;;4.60;;
5285;SDS011;2665;53.112;7.358;2023-12-07T06:10:56;6.50;;;3.50;;
5285;SDS011;2665;53.112;7.358;2023-12-07T06:13:22;8.60;;;5.13;;
5285;SDS011;2665;53.112;7.358;2023-12-07T06:15:49;8.13;;;4.60;;
5285;SDS011;2665;53.112;7.358;2023-12-07T06:18:15;10.07;;;5.40;;
5285;SDS011;2665;53.112;7.358;2023-12-07T06:20:41;7.00;;;4.50;;
5285;SDS011;2665;53.112;7.358;2023-12-07T06:23:07;7.13;;;4.47;;
5285;SDS011;2665;53.112;7.358;2023-12-07T06:25:37;7.50;;;5.00;;
5285;SDS011;2665;53.112;7.358;2023-12-07T06:28:03;9.13;;;5.97;;
5285;SDS011;2665;53.112;7.358;2023-12-07T06:30:29;7.93;;;5.80;;
5285;SDS011;2665;53.112;7.358;2023-12-07T06:32:56;7.47;;;5.10;;
5285;SDS011;2665;53.112;7.358;2023-12-07T06:35:22;8.00;;;5.07;;
5285;SDS011;2665;53.112;7.358;2023-12-07T06:37:49;13.53;;;5.37;;
5285;SDS011;2665;53.112;7.358;2023-12-07T06:40:15;7.50;;;5.50;;
5285;SDS011;2665;53.112;7.358;2023-12-07T06:42:41;9.93;;;4.53;;
5285;SDS011;2665;53.112;7.358;2023-12-07T06:45:07;9.33;;;5.57;;
5285;SDS011;2665;53.112;7.358;2023-12-07T06:47:39;9.37;;;5.77;;
5285;SDS011;2665;53.112;7.358;2023-12-07T06:50:05;12.73;;;5.60;;
5285;SDS011;2665;53.112;7.358;2023-12-07T06:52:38;8.50;;;4.60;;
5285;SDS011;2665;53.112;7.358;2023-12-07T06:55:05;10.00;;;5.80;;
5285;SDS011;2665;53.112;7.358;2023-12-07T06:57:31;10.83;;;6.37;;
5285;SDS011;2665;53.112;7.358;2023-12-07T06:59:58;9.47;;;5.77;;
5285;SDS011;2665;53.112;7.358;2023-12-07T07:02:24;9.23;;;5.57;;
5285;SDS011;2665;53.112;7.358;2023-12-07T07:04:50;9.93;;;5.37;;
5285;SDS011;2665;53.112;7.358;2023-12-07T07:07:16;8.23;;;4.87;;
5285;SDS011;2665;53.112;7.358;2023-12-07T07:09:43;7.60;;;4.20;;
5285;SDS011;2665;53.112;7.358;2023-12-07T07:12:09;9.70;;;5.07;;
5285;SDS011;2665;53.112;7.358;2023-12-07T07:14:35;7.63;;;5.27;;
5285;SDS011;2665;53.112;7.358;2023-12-07T07:17:01;7.10;;;5.43;;
5285;SDS011;2665;53.112;7.358;2023-12-07T07:19:29;10.07;;;5.77;;
5285;SDS011;2665;53.112;7.358;2023-12-07T07:21:55;8.30;;;5.23;;
5285;SDS011;2665;53.112;7.358;2023-12-07T07:24:22;10.97;;;5.27;;
5285;SDS011;2665;53.112;7.358;2023-12-07T07:26:48;7.50;;;4.77;;
5285;SDS011;2665;53.112;7.358;2023-12-07T07:29:14;8.13;;;5.73;;
5285;SDS011;2665;53.112;7.358;2023-12-07T07:31:40;10.20;;;5.80;;
5285;SDS011;2665;53.112;7.358;2023-12-07T07:34:06;10.20;;;5.93;;
5285;SDS011;2665;53.112;7.358;2023-12-07T07:36:33;10.33;;;6.77;;
5285;SDS011;2665;53.112;7.358;2023-12-07T07:38:59;8.67;;;6.10;;
5285;SDS011;2665;53.112;7.358;2023-12-07T07:41:25;10.43;;;6.23;;
5285;SDS011;2665;53.112;7.358;2023-12-07T07:43:51;12.90;;;6.47;;
5285;SDS011;2665;53.112;7.358;2023-12-07T07:46:17;10.50;;;5.70;;
5285;SDS011;2665;53.112;7.358;2023-12-07T07:48:43;10.43;;;6.10;;
5285;SDS011;2665;53.112;7.358;2023-12-07T07:51:09;12.57;;;6.70;;
5285;SDS011;2665;53.112;7.358;2023-12-07T07:53:35;10.30;;;5.47;;
5285;SDS011;2665;53.112;7.358;2023-12-07T07:56:01;14.00;;;6.47;;
5285;SDS011;2665;53.112;7.358;2023-12-07T07:58:27;10.70;;;5.30;;
5285;SDS011;2665;53.112;7.358;2023-12-07T08:00:53;10.10;;;6.43;;
5285;SDS011;2665;53.112;7.358;2023-12-07T08:03:19;16.03;;;6.87;;
5285;SDS011;2665;53.112;7.358;2023-12-07T08:05:45;11.47;;;6.90;;
5285;SDS011;2665;53.112;7.358;2023-12-07T08:08:11;10.63;;;5.83;;
5285;SDS011;2665;53.112;7.358;2023-12-07T08:10:37;11.10;;;6.10;;
5285;SDS011;2665;53.112;7.358;2023-12-07T08:13:04;11.87;;;6.90;;
5285;SDS011;2665;53.112;7.358;2023-12-07T08:15:32;14.70;;;7.60;;
5285;SDS011;2665;53.112;7.358;2023-12-07T08:17:58;11.53;;;6.97;;
5285;SDS011;2665;53.112;7.358;2023-12-07T08:20:24;8.70;;;5.73;;
5285;SDS011;2665;53.112;7.358;2023-12-07T08:22:50;8.83;;;6.27;;
5285;SDS011;2665;53.112;7.358;2023-12-07T08:25:16;9.63;;;5.93;;
5285;SDS011;2665;53.112;7.358;2023-12-07T08:27:42;10.17;;;6.20;;
5285;SDS011;2665;53.112;7.358;2023-12-07T08:30:12;10.70;;;6.00;;
5285;SDS011;2665;53.112;7.358;2023-12-07T08:32:38;8.17;;;5.77;;
5285;SDS011;2665;53.112;7.358;2023-12-07T08:35:05;9.30;;;6.00;;
5285;SDS011;2665;53.112;7.358;2023-12-07T08:37:31;12.60;;;6.67;;
5285;SDS011;2665;53.112;7.358;2023-12-07T08:39:58;11.70;;;6.10;;
5285;SDS011;2665;53.112;7.358;2023-12-07T08:42:24;10.67;;;6.37;;
5285;SDS011;2665;53.112;7.358;2023-12-07T08:44:51;14.10;;;6.83;;
5285;SDS011;2665;53.112;7.358;2023-12-07T08:47:17;9.93;;;6.20;;
5285;SDS011;2665;53.112;7.358;2023-12-07T08:49:43;10.80;;;6.67;;
5285;SDS011;2665;53.112;7.358;2023-12-07T08:52:09;8.40;;;6.03;;
5285;SDS011;2665;53.112;7.358;2023-12-07T08:54:36;15.20;;;7.60;;
5285;SDS011;2665;53.112;7.358;2023-12-07T08:57:02;10.10;;;6.67;;
5285;SDS011;2665;53.112;7.358;2023-12-07T08:59:28;8.07;;;5.53;;
5285;SDS011;2665;53.112;7.358;2023-12-07T09:01:55;11.50;;;6.67;;
5285;SDS011;2665;53.112;7.358;2023-12-07T09:04:21;14.73;;;6.40;;
5285;SDS011;2665;53.112;7.358;2023-12-07T09:06:47;9.90;;;6.10;;
5285;SDS011;2665;53.112;7.358;2023-12-07T09:09:13;10.03;;;6.70;;
5285;SDS011;2665;53.112;7.358;2023-12-07T09:11:39;16.00;;;7.10;;
5285;SDS011;2665;53.112;7.358;2023-12-07T09:14:05;14.40;;;7.60;;
5285;SDS011;2665;53.112;7.358;2023-12-07T09:16:31;12.83;;;6.80;;
5285;SDS011;2665;53.112;7.358;2023-12-07T09:18:57;11.93;;;7.20;;
5285;SDS011;2665;53.112;7.358;2023-12-07T09:21:24;9.07;;;6.47;;
5285;SDS011;2665;53.112;7.358;2023-12-07T09:23:50;10.27;;;7.00;;
5285;SDS011;2665;53.112;7.358;2023-12-07T09:26:17;13.97;;;7.73;;
5285;SDS011;2665;53.112;7.358;2023-12-07T09:28:43;10.40;;;6.83;;
5285;SDS011;2665;53.112;7.358;2023-12-07T09:31:09;10.40;;;6.87;;
5285;SDS011;2665;53.112;7.358;2023-12-07T09:33:35;10.33;;;5.60;;
5285;SDS011;2665;53.112;7.358;2023-12-07T09:36:01;12.90;;;8.00;;
5285;SDS011;2665;53.112;7.358;2023-12-07T09:38:33;12.87;;;8.17;;
5285;SDS011;2665;53.112;7.358;2023-12-07T09:41:01;11.70;;;7.70;;
5285;SDS011;2665;53.112;7.358;2023-12-07T09:43:28;14.40;;;7.57;;
5285;SDS011;2665;53.112;7.358;2023-12-07T09:45:54;11.50;;;8.50;;
5285;SDS011;2665;53.112;7.358;2023-12-07T09:48:21;12.63;;;7.83;;
5285;SDS011;2665;53.112;7.358;2023-12-07T09:50:47;11.33;;;7.30;;
5285;SDS011;2665;53.112;7.358;2023-12-07T09:53:13;13.27;;;7.80;;
5285;SDS011;2665;53.112;7.358;2023-12-07T09:55:39;12.10;;;7.37;;
5285;SDS011;2665;53.112;7.358;2023-12-07T09:58:06;12.43;;;6.57;;
5285;SDS011;2665;53.112;7.358;2023-12-07T10:00:32;12.60;;;7.53;;
5285;SDS011;2665;53.112;7.358;2023-12-07T10:02:58;10.37;;;6.87;;
5285;SDS011;2665;53.112;7.358;2023-12-07T10:05:24;10.50;;;6.37;;
5285;SDS011;2665;53.112;7.358;2023-12-07T10:07:50;11.50;;;7.63;;
5285;SDS011;2665;53.112;7.358;2023-12-07T10:10:17;10.83;;;7.43;;
5285;SDS011;2665;53.112;7.358;2023-12-07T10:12:47;12.43;;;7.90;;
5285;SDS011;2665;53.112;7.358;2023-12-07T10:15:14;12.03;;;8.03;;
5285;SDS011;2665;53.112;7.358;2023-12-07T10:17:45;11.77;;;7.40;;
5285;SDS011;2665;53.112;7.358;2023-12-07T10:20:13;11.27;;;6.77;;
5285;SDS011;2665;53.112;7.358;2023-12-07T10:22:39;10.37;;;6.97;;
5285;SDS011;2665;53.112;7.358;2023-12-07T10:25:06;10.77;;;5.87;;
5285;SDS011;2665;53.112;7.358;2023-12-07T10:27:33;12.13;;;6.77;;
5285;SDS011;2665;53.112;7.358;2023-12-07T10:30:00;10.90;;;6.80;;
5285;SDS011;2665;53.112;7.358;2023-12-07T10:32:26;14.70;;;7.33;;
5285;SDS011;2665;53.112;7.358;2023-12-07T10:34:52;10.43;;;7.40;;
5285;SDS011;2665;53.112;7.358;2023-12-07T10:37:21;13.60;;;6.60;;
5285;SDS011;2665;53.112;7.358;2023-12-07T10:39:48;10.80;;;6.67;;
5285;SDS011;2665;53.112;7.358;2023-12-07T10:42:14;14.03;;;7.07;;
5285;SDS011;2665;53.112;7.358;2023-12-07T10:44:42;10.17;;;6.93;;
5285;SDS011;2665;53.112;7.358;2023-12-07T10:47:11;10.80;;;6.90;;
5285;SDS011;2665;53.112;7.358;2023-12-07T10:49:39;14.33;;;6.83;;
5285;SDS011;2665;53.112;7.358;2023-12-07T10:52:10;12.77;;;6.80;;
5285;SDS011;2665;53.112;7.358;2023-12-07T10:54:41;9.67;;;6.17;;
5285;SDS011;2665;53.112;7.358;2023-12-07T10:57:40;11.90;;;7.20;;
5285;SDS011;2665;53.112;7.358;2023-12-07T11:00:07;11.73;;;7.97;;
5285;SDS011;2665;53.112;7.358;2023-12-07T11:02:34;14.73;;;7.70;;
5285;SDS011;2665;53.112;7.358;2023-12-07T11:05:00;10.60;;;7.20;;
5285;SDS011;2665;53.112;7.358;2023-12-07T11:07:30;12.40;;;8.10;;
5285;SDS011;2665;53.112;7.358;2023-12-07T11:10:00;9.10;;;6.70;;
5285;SDS011;2665;53.112;7.358;2023-12-07T11:12:33;10.10;;;6.70;;
5285;SDS011;2665;53.112;7.358;2023-12-07T11:15:01;8.10;;;6.00;;
5285;SDS011;2665;53.112;7.358;2023-12-07T11:17:28;8.30;;;6.10;;
5285;SDS011;2665;53.112;7.358;2023-12-07T11:19:54;8.43;;;5.80;;
5285;SDS011;2665;53.112;7.358;2023-12-07T11:22:20;7.23;;;5.30;;
5285;SDS011;2665;53.112;7.358;2023-12-07T11:24:51;7.47;;;5.70;;
5285;SDS011;2665;53.112;7.358;2023-12-07T11:27:18;8.80;;;5.60;;
5285;SDS011;2665;53.112;7.358;2023-12-07T11:29:45;8.07;;;5.53;;
5285;SDS011;2665;53.112;7.358;2023-12-07T11:32:12;9.30;;;7.10;;
5285;SDS011;2665;53.112;7.358;2023-12-07T11:34:38;9.57;;;6.57;;
5285;SDS011;2665;53.112;7.358;2023-12-07T11:37:08;7.60;;;6.00;;
5285;SDS011;2665;53.112;7.358;2023-12-07T11:39:35;9.97;;;6.17;;
5285;SDS011;2665;53.112;7.358;2023-12-07T11:42:34;9.60;;;5.60;;
5285;SDS011;2665;53.112;7.358;2023-12-07T11:44:54;9.30;;;6.37;;
5285;SDS011;2665;53.112;7.358;2023-12-07T11:47:21;9.00;;;5.53;;
5285;SDS011;2665;53.112;7.358;2023-12-07T11:49:47;7.87;;;6.03;;
5285;SDS011;2665;53.112;7.358;2023-12-07T11:54:40;8.67;;;6.53;;
5285;SDS011;2665;53.112;7.358;2023-12-07T11:57:06;12.80;;;5.80;;
5285;SDS011;2665;53.112;7.358;2023-12-07T11:59:32;8.80;;;6.23;;
5285;SDS011;2665;53.112;7.358;2023-12-07T12:02:01;8.67;;;6.60;;
5285;SDS011;2665;53.112;7.358;2023-12-07T12:04:27;9.37;;;5.57;;
5285;SDS011;2665;53.112;7.358;2023-12-07T12:06:54;9.10;;;5.77;;
5285;SDS011;2665;53.112;7.358;2023-12-07T12:09:20;12.40;;;6.70;;
5285;SDS011;2665;53.112;7.358;2023-12-07T12:11:46;10.53;;;6.10;;
5285;SDS011;2665;53.112;7.358;2023-12-07T12:14:14;9.43;;;6.37;;
5285;SDS011;2665;53.112;7.358;2023-12-07T12:16:41;13.47;;;8.10;;
5285;SDS011;2665;53.112;7.358;2023-12-07T12:19:08;10.30;;;6.03;;
5285;SDS011;2665;53.112;7.358;2023-12-07T12:21:34;10.47;;;6.60;;
5285;SDS011;2665;53.112;7.358;2023-12-07T12:24:00;11.00;;;6.83;;
5285;SDS011;2665;53.112;7.358;2023-12-07T12:26:26;12.17;;;7.20;;
5285;SDS011;2665;53.112;7.358;2023-12-07T12:28:53;12.67;;;7.20;;
5285;SDS011;2665;53.112;7.358;2023-12-07T12:31:19;12.03;;;6.40;;
5285;SDS011;2665;53.112;7.358;2023-12-07T12:33:45;12.53;;;7.53;;
5285;SDS011;2665;53.112;7.358;2023-12-07T12:36:14;12.33;;;6.63;;
5285;SDS011;2665;53.112;7.358;2023-12-07T12:38:43;12.77;;;7.00;;
5285;SDS011;2665;53.112;7.358;2023-12-07T12:41:12;10.50;;;6.63;;
5285;SDS011;2665;53.112;7.358;2023-12-07T12:43:38;16.60;;;8.63;;
5285;SDS011;2665;53.112;7.358;2023-12-07T12:46:04;9.73;;;6.47;;
5285;SDS011;2665;53.112;7.358;2023-12-07T12:48:31;12.77;;;8.47;;
5285;SDS011;2665;53.112;7.358;2023-12-07T12:50:57;12.63;;;7.63;;
5285;SDS011;2665;53.112;7.358;2023-12-07T12:53:23;15.77;;;8.40;;
5285;SDS011;2665;53.112;7.358;2023-12-07T12:55:50;13.60;;;7.90;;
5285;SDS011;2665;53.112;7.358;2023-12-07T12:58:16;13.47;;;7.47;;
5285;SDS011;2665;53.112;7.358;2023-12-07T13:00:42;11.10;;;7.13;;
5285;SDS011;2665;53.112;7.358;2023-12-07T13:03:09;13.87;;;8.37;;
5285;SDS011;2665;53.112;7.358;2023-12-07T13:05:38;16.37;;;10.40;;
5285;SDS011;2665;53.112;7.358;2023-12-07T13:08:04;18.17;;;9.00;;
5285;SDS011;2665;53.112;7.358;2023-12-07T13:10:30;18.57;;;9.33;;
5285;SDS011;2665;53.112;7.358;2023-12-07T13:12:56;22.63;;;10.20;;
5285;SDS011;2665;53.112;7.358;2023-12-07T13:15:23;24.60;;;11.77;;
5285;SDS011;2665;53.112;7.358;2023-12-07T13:17:50;23.20;;;11.27;;
5285;SDS011;2665;53.112;7.358;2023-12-07T13:20:16;23.90;;;12.63;;
5285;SDS011;2665;53.112;7.358;2023-12-07T13:22:43;30.27;;;13.60;;
5285;SDS011;2665;53.112;7.358;2023-12-07T13:25:09;29.43;;;13.37;;
5285;SDS011;2665;53.112;7.358;2023-12-07T13:27:37;29.37;;;14.00;;
5285;SDS011;2665;53.112;7.358;2023-12-07T13:30:03;28.87;;;11.40;;
5285;SDS011;2665;53.112;7.358;2023-12-07T13:32:32;38.60;;;13.77;;
5285;SDS011;2665;53.112;7.358;2023-12-07T13:34:58;19.70;;;10.63;;
5285;SDS011;2665;53.112;7.358;2023-12-07T13:37:24;26.33;;;11.80;;
5285;SDS011;2665;53.112;7.358;2023-12-07T13:39:50;24.17;;;11.53;;
5285;SDS011;2665;53.112;7.358;2023-12-07T13:42:22;25.33;;;12.63;;
5285;SDS011;2665;53.112;7.358;2023-12-07T13:44:51;19.53;;;9.90;;
5285;SDS011;2665;53.112;7.358;2023-12-07T13:47:17;25.80;;;11.37;;
5285;SDS011;2665;53.112;7.358;2023-12-07T13:49:45;19.73;;;10.50;;
5285;SDS011;2665;53.112;7.358;2023-12-07T13:52:11;25.30;;;11.40;;
5285;SDS011;2665;53.112;7.358;2023-12-07T13:54:38;26.90;;;11.40;;
5285;SDS011;2665;53.112;7.358;2023-12-07T13:57:04;22.47;;;10.70;;
5285;SDS011;2665;53.112;7.358;2023-12-07T13:59:31;21.60;;;10.03;;
5285;SDS011;2665;53.112;7.358;2023-12-07T14:01:57;19.63;;;10.57;;
5285;SDS011;2665;53.112;7.358;2023-12-07T14:04:24;22.10;;;10.10;;
5285;SDS011;2665;53.112;7.358;2023-12-07T14:06:50;19.30;;;9.60;;
5285;SDS011;2665;53.112;7.358;2023-12-07T14:09:16;22.63;;;11.07;;
5285;SDS011;2665;53.112;7.358;2023-12-07T14:11:43;18.93;;;9.43;;
5285;SDS011;2665;53.112;7.358;2023-12-07T14:14:09;20.23;;;8.73;;
5285;SDS011;2665;53.112;7.358;2023-12-07T14:16:38;25.30;;;10.07;;
5285;SDS011;2665;53.112;7.358;2023-12-07T14:19:04;25.57;;;10.20;;
5285;SDS011;2665;53.112;7.358;2023-12-07T14:21:31;22.70;;;10.00;;
5285;SDS011;2665;53.112;7.358;2023-12-07T14:23:57;27.53;;;11.50;;
5285;SDS011;2665;53.112;7.358;2023-12-07T14:26:23;25.17;;;10.07;;
5285;SDS011;2665;53.112;7.358;2023-12-07T14:28:49;19.43;;;9.60;;
5285;SDS011;2665;53.112;7.358;2023-12-07T14:31:15;31.97;;;10.47;;
5285;SDS011;2665;53.112;7.358;2023-12-07T14:33:42;24.70;;;12.37;;
5285;SDS011;2665;53.112;7.358;2023-12-07T14:36:09;24.33;;;10.40;;
5285;SDS011;2665;53.112;7.358;2023-12-07T14:38:36;25.60;;;11.27;;
5285;SDS011;2665;53.112;7.358;2023-12-07T14:41:02;18.77;;;9.50;;
5285;SDS011;2665;53.112;7.358;2023-12-07T14:43:29;31.00;;;12.53;;
5285;SDS011;2665;53.112;7.358;2023-12-07T14:45:55;27.13;;;10.50;;
5285;SDS011;2665;53.112;7.358;2023-12-07T14:48:21;25.53;;;11.00;;
5285;SDS011;2665;53.112;7.358;2023-12-07T14:50:48;26.53;;;11.43;;
5285;SDS011;2665;53.112;7.358;2023-12-07T14:53:14;31.63;;;11.40;;
5285;SDS011;2665;53.112;7.358;2023-12-07T14:55:40;28.33;;;10.77;;
5285;SDS011;2665;53.112;7.358;2023-12-07T14:58:07;25.87;;;11.70;;
5285;SDS011;2665;53.112;7.358;2023-12-07T15:00:33;22.47;;;11.20;;
5285;SDS011;2665;53.112;7.358;2023-12-07T15:02:59;30.87;;;10.93;;
5285;SDS011;2665;53.112;7.358;2023-12-07T15:05:25;28.10;;;11.27;;
5285;SDS011;2665;53.112;7.358;2023-12-07T15:07:51;26.50;;;11.63;;